sensor_id;sensor_type;location;lat;lon;timestamp;P1;durP1;ratioP1;P2;durP2;ratioP2
9473;SDS011;8865;47.636;7.692;2023-06-22T00:01:11;9.73;;;6.30;;
9473;SDS011;8865;47.636;7.692;2023-06-22T00:03:37;11.17;;;6.33;;
9473;SDS011;8865;47.636;7.692;2023-06-22T00:06:03;7.47;;;5.13;;
9473;SDS011;8865;47.636;7.692;2023-06-22T00:08:29;9.33;;;5.90;;
9473;SDS011;8865;47.636;7.692;2023-06-22T00:10:54;8.90;;;5.90;;
9473;SDS011;8865;47.636;7.692;2023-06-22T00:13:21;9.67;;;5.40;;
9473;SDS011;8865;47.636;7.692;2023-06-22T00:15:46;7.20;;;5.37;;
9473;SDS011;8865;47.636;7.692;2023-06-22T00:18:12;7.83;;;5.40;;
9473;SDS011;8865;47.636;7.692;2023-06-22T00:20:39;8.23;;;5.70;;
9473;SDS011;8865;47.636;7.692;2023-06-22T00:23:06;8.53;;;5.27;;
9473;SDS011;8865;47.636;7.692;2023-06-22T00:25:36;7.90;;;5.03;;
9473;SDS011;8865;47.636;7.692;2023-06-22T00:28:03;10.93;;;5.40;;
9473;SDS011;8865;47.636;7.692;2023-06-22T00:30:30;9.27;;;5.90;;
9473;SDS011;8865;47.636;7.692;2023-06-22T00:32:57;8.93;;;5.17;;
9473;SDS011;8865;47.636;7.692;2023-06-22T00:35:24;8.23;;;5.73;;
9473;SDS011;8865;47.636;7.692;2023-06-22T00:37:55;12.40;;;5.37;;
9473;SDS011;8865;47.636;7.692;2023-06-22T00:40:26;7.10;;;5.70;;
9473;SDS011;8865;47.636;7.692;2023-06-22T00:42:56;8.93;;;5.60;;
9473;SDS011;8865;47.636;7.692;2023-06-22T00:45:25;10.83;;;5.53;;
9473;SDS011;8865;47.636;7.692;2023-06-22T00:47:52;9.20;;;5.80;;
9473;SDS011;8865;47.636;7.692;2023-06-22T00:50:22;7.97;;;6.10;;
9473;SDS011;8865;47.636;7.692;2023-06-22T00:52:52;7.90;;;6.07;;
9473;SDS011;8865;47.636;7.692;2023-06-22T00:55:22;8.17;;;5.60;;
9473;SDS011;8865;47.636;7.692;2023-06-22T00:57:49;9.47;;;5.13;;
9473;SDS011;8865;47.636;7.692;2023-06-22T01:00:15;8.40;;;5.77;;
9473;SDS011;8865;47.636;7.692;2023-06-22T01:02:45;6.57;;;5.93;;
9473;SDS011;8865;47.636;7.692;2023-06-22T01:05:13;13.97;;;6.30;;
9473;SDS011;8865;47.636;7.692;2023-06-22T01:10:51;13.33;;;6.30;;
9473;SDS011;8865;47.636;7.692;2023-06-22T01:18:41;11.27;;;6.40;;
9473;SDS011;8865;47.636;7.692;2023-06-22T01:21:09;9.20;;;6.03;;
9473;SDS011;8865;47.636;7.692;2023-06-22T01:27:18;8.90;;;6.00;;
9473;SDS011;8865;47.636;7.692;2023-06-22T01:29:40;9.47;;;5.60;;
9473;SDS011;8865;47.636;7.692;2023-06-22T01:32:08;9.90;;;5.60;;
9473;SDS011;8865;47.636;7.692;2023-06-22T01:34:37;8.90;;;5.67;;
9473;SDS011;8865;47.636;7.692;2023-06-22T01:37:05;10.67;;;5.70;;
9473;SDS011;8865;47.636;7.692;2023-06-22T01:39:32;8.37;;;5.73;;
9473;SDS011;8865;47.636;7.692;2023-06-22T01:41:59;7.70;;;6.27;;
9473;SDS011;8865;47.636;7.692;2023-06-22T01:44:26;10.40;;;6.10;;
9473;SDS011;8865;47.636;7.692;2023-06-22T01:46:53;11.00;;;6.47;;
9473;SDS011;8865;47.636;7.692;2023-06-22T01:49:19;8.40;;;5.67;;
9473;SDS011;8865;47.636;7.692;2023-06-22T01:51:45;11.53;;;6.60;;
9473;SDS011;8865;47.636;7.692;2023-06-22T01:54:11;10.20;;;6.43;;
9473;SDS011;8865;47.636;7.692;2023-06-22T01:56:37;9.00;;;6.30;;
9473;SDS011;8865;47.636;7.692;2023-06-22T02:02:02;8.97;;;6.00;;
9473;SDS011;8865;47.636;7.692;2023-06-22T02:04:36;11.23;;;6.17;;
9473;SDS011;8865;47.636;7.692;2023-06-22T02:07:10;10.37;;;5.63;;
9473;SDS011;8865;47.636;7.692;2023-06-22T02:09:43;7.00;;;5.87;;
9473;SDS011;8865;47.636;7.692;2023-06-22T02:12:11;8.60;;;5.70;;
9473;SDS011;8865;47.636;7.692;2023-06-22T02:14:39;8.53;;;5.60;;
9473;SDS011;8865;47.636;7.692;2023-06-22T02:17:07;6.73;;;5.97;;
9473;SDS011;8865;47.636;7.692;2023-06-22T02:19:38;11.13;;;5.90;;
9473;SDS011;8865;47.636;7.692;2023-06-22T02:22:04;11.30;;;6.17;;
9473;SDS011;8865;47.636;7.692;2023-06-22T02:24:30;9.13;;;6.63;;
9473;SDS011;8865;47.636;7.692;2023-06-22T02:26:58;12.40;;;6.33;;
9473;SDS011;8865;47.636;7.692;2023-06-22T02:29:24;10.40;;;6.10;;
9473;SDS011;8865;47.636;7.692;2023-06-22T02:31:50;10.43;;;6.10;;
9473;SDS011;8865;47.636;7.692;2023-06-22T02:34:17;11.77;;;7.00;;
9473;SDS011;8865;47.636;7.692;2023-06-22T02:36:46;11.00;;;6.50;;
9473;SDS011;8865;47.636;7.692;2023-06-22T02:41:56;11.50;;;7.03;;
9473;SDS011;8865;47.636;7.692;2023-06-22T02:44:22;8.53;;;6.70;;
9473;SDS011;8865;47.636;7.692;2023-06-22T02:46:48;9.50;;;6.60;;
9473;SDS011;8865;47.636;7.692;2023-06-22T02:49:14;10.63;;;6.37;;
9473;SDS011;8865;47.636;7.692;2023-06-22T02:51:42;11.93;;;7.07;;
9473;SDS011;8865;47.636;7.692;2023-06-22T02:54:10;9.27;;;6.23;;
9473;SDS011;8865;47.636;7.692;2023-06-22T02:56:36;13.50;;;6.53;;
9473;SDS011;8865;47.636;7.692;2023-06-22T02:59:02;10.00;;;6.83;;
9473;SDS011;8865;47.636;7.692;2023-06-22T03:01:28;9.00;;;6.60;;
9473;SDS011;8865;47.636;7.692;2023-06-22T03:03:56;8.30;;;6.33;;
9473;SDS011;8865;47.636;7.692;2023-06-22T03:06:22;9.57;;;6.00;;
9473;SDS011;8865;47.636;7.692;2023-06-22T03:08:49;11.03;;;6.80;;
9473;SDS011;8865;47.636;7.692;2023-06-22T03:11:16;10.20;;;6.40;;
9473;SDS011;8865;47.636;7.692;2023-06-22T03:13:42;9.83;;;6.03;;
9473;SDS011;8865;47.636;7.692;2023-06-22T03:16:09;9.13;;;6.27;;
9473;SDS011;8865;47.636;7.692;2023-06-22T03:18:35;10.57;;;6.40;;
9473;SDS011;8865;47.636;7.692;2023-06-22T03:21:01;11.60;;;6.83;;
9473;SDS011;8865;47.636;7.692;2023-06-22T03:23:27;8.60;;;6.03;;
9473;SDS011;8865;47.636;7.692;2023-06-22T03:25:53;8.07;;;6.23;;
9473;SDS011;8865;47.636;7.692;2023-06-22T03:28:21;9.43;;;6.17;;
9473;SDS011;8865;47.636;7.692;2023-06-22T03:30:47;11.60;;;6.13;;
9473;SDS011;8865;47.636;7.692;2023-06-22T03:33:13;9.57;;;6.27;;
9473;SDS011;8865;47.636;7.692;2023-06-22T03:35:39;8.37;;;6.30;;
9473;SDS011;8865;47.636;7.692;2023-06-22T03:38:05;8.33;;;6.00;;
9473;SDS011;8865;47.636;7.692;2023-06-22T03:40:32;10.43;;;5.83;;
9473;SDS011;8865;47.636;7.692;2023-06-22T03:42:58;10.97;;;6.07;;
9473;SDS011;8865;47.636;7.692;2023-06-22T03:45:24;12.37;;;6.27;;
9473;SDS011;8865;47.636;7.692;2023-06-22T03:47:50;9.83;;;6.30;;
9473;SDS011;8865;47.636;7.692;2023-06-22T03:50:16;9.00;;;5.80;;
9473;SDS011;8865;47.636;7.692;2023-06-22T03:52:42;10.20;;;6.53;;
9473;SDS011;8865;47.636;7.692;2023-06-22T03:55:08;10.37;;;5.93;;
9473;SDS011;8865;47.636;7.692;2023-06-22T03:57:34;8.47;;;6.40;;
9473;SDS011;8865;47.636;7.692;2023-06-22T04:00:00;10.63;;;6.33;;
9473;SDS011;8865;47.636;7.692;2023-06-22T04:02:27;9.93;;;6.40;;
9473;SDS011;8865;47.636;7.692;2023-06-22T04:04:53;9.73;;;6.20;;
9473;SDS011;8865;47.636;7.692;2023-06-22T04:07:19;11.47;;;6.17;;
9473;SDS011;8865;47.636;7.692;2023-06-22T04:09:45;9.47;;;6.33;;
9473;SDS011;8865;47.636;7.692;2023-06-22T04:12:11;8.60;;;6.30;;
9473;SDS011;8865;47.636;7.692;2023-06-22T04:14:37;11.00;;;6.40;;
9473;SDS011;8865;47.636;7.692;2023-06-22T04:17:03;9.83;;;6.50;;
9473;SDS011;8865;47.636;7.692;2023-06-22T04:19:30;8.10;;;5.87;;
9473;SDS011;8865;47.636;7.692;2023-06-22T04:21:56;10.37;;;6.63;;
9473;SDS011;8865;47.636;7.692;2023-06-22T04:24:22;11.57;;;6.70;;
9473;SDS011;8865;47.636;7.692;2023-06-22T04:26:48;9.17;;;6.30;;
9473;SDS011;8865;47.636;7.692;2023-06-22T04:29:14;14.20;;;6.40;;
9473;SDS011;8865;47.636;7.692;2023-06-22T04:31:40;12.30;;;9.07;;
9473;SDS011;8865;47.636;7.692;2023-06-22T04:34:06;12.13;;;8.30;;
9473;SDS011;8865;47.636;7.692;2023-06-22T04:36:39;12.87;;;6.60;;
9473;SDS011;8865;47.636;7.692;2023-06-22T04:39:10;11.37;;;6.33;;
9473;SDS011;8865;47.636;7.692;2023-06-22T04:41:37;9.63;;;6.00;;
9473;SDS011;8865;47.636;7.692;2023-06-22T04:44:13;10.80;;;6.40;;
9473;SDS011;8865;47.636;7.692;2023-06-22T04:46:39;11.47;;;6.93;;
9473;SDS011;8865;47.636;7.692;2023-06-22T04:49:06;8.27;;;6.70;;
9473;SDS011;8865;47.636;7.692;2023-06-22T04:51:41;14.07;;;7.63;;
9473;SDS011;8865;47.636;7.692;2023-06-22T04:54:08;7.23;;;6.27;;
9473;SDS011;8865;47.636;7.692;2023-06-22T04:56:35;9.97;;;6.93;;
9473;SDS011;8865;47.636;7.692;2023-06-22T04:59:01;9.87;;;7.07;;
9473;SDS011;8865;47.636;7.692;2023-06-22T05:01:28;11.13;;;6.67;;
9473;SDS011;8865;47.636;7.692;2023-06-22T05:03:56;10.87;;;7.13;;
9473;SDS011;8865;47.636;7.692;2023-06-22T05:06:24;11.60;;;7.07;;
9473;SDS011;8865;47.636;7.692;2023-06-22T05:08:53;9.70;;;7.00;;
9473;SDS011;8865;47.636;7.692;2023-06-22T05:11:27;9.23;;;6.07;;
9473;SDS011;8865;47.636;7.692;2023-06-22T05:13:54;10.77;;;6.50;;
9473;SDS011;8865;47.636;7.692;2023-06-22T05:16:21;14.07;;;6.60;;
9473;SDS011;8865;47.636;7.692;2023-06-22T05:18:50;8.87;;;6.20;;
9473;SDS011;8865;47.636;7.692;2023-06-22T05:21:17;12.03;;;6.50;;
9473;SDS011;8865;47.636;7.692;2023-06-22T05:23:44;11.07;;;6.67;;
9473;SDS011;8865;47.636;7.692;2023-06-22T05:26:10;10.13;;;7.37;;
9473;SDS011;8865;47.636;7.692;2023-06-22T05:28:36;7.27;;;6.00;;
9473;SDS011;8865;47.636;7.692;2023-06-22T05:31:02;11.40;;;6.53;;
9473;SDS011;8865;47.636;7.692;2023-06-22T05:33:29;7.47;;;6.20;;
9473;SDS011;8865;47.636;7.692;2023-06-22T05:35:55;11.50;;;6.50;;
9473;SDS011;8865;47.636;7.692;2023-06-22T05:38:21;11.77;;;6.53;;
9473;SDS011;8865;47.636;7.692;2023-06-22T05:40:47;10.47;;;6.70;;
9473;SDS011;8865;47.636;7.692;2023-06-22T05:43:13;8.53;;;6.13;;
9473;SDS011;8865;47.636;7.692;2023-06-22T05:45:39;9.67;;;5.83;;
9473;SDS011;8865;47.636;7.692;2023-06-22T05:48:05;10.03;;;5.73;;
9473;SDS011;8865;47.636;7.692;2023-06-22T05:50:32;8.70;;;5.77;;
9473;SDS011;8865;47.636;7.692;2023-06-22T05:52:58;9.63;;;6.13;;
9473;SDS011;8865;47.636;7.692;2023-06-22T05:55:24;9.83;;;5.80;;
9473;SDS011;8865;47.636;7.692;2023-06-22T05:57:50;10.43;;;6.20;;
9473;SDS011;8865;47.636;7.692;2023-06-22T06:00:17;9.67;;;5.87;;
9473;SDS011;8865;47.636;7.692;2023-06-22T06:02:43;8.30;;;5.47;;
9473;SDS011;8865;47.636;7.692;2023-06-22T06:05:10;11.47;;;5.70;;
9473;SDS011;8865;47.636;7.692;2023-06-22T06:07:39;8.43;;;5.77;;
9473;SDS011;8865;47.636;7.692;2023-06-22T06:10:06;9.30;;;5.70;;
9473;SDS011;8865;47.636;7.692;2023-06-22T06:12:32;9.57;;;5.87;;
9473;SDS011;8865;47.636;7.692;2023-06-22T06:14:58;9.23;;;6.40;;
9473;SDS011;8865;47.636;7.692;2023-06-22T06:17:24;11.20;;;6.57;;
9473;SDS011;8865;47.636;7.692;2023-06-22T06:19:50;10.80;;;7.13;;
9473;SDS011;8865;47.636;7.692;2023-06-22T06:22:16;10.07;;;7.07;;
9473;SDS011;8865;47.636;7.692;2023-06-22T06:24:42;7.63;;;6.80;;
9473;SDS011;8865;47.636;7.692;2023-06-22T06:27:10;10.87;;;7.37;;
9473;SDS011;8865;47.636;7.692;2023-06-22T06:29:36;10.43;;;7.23;;
9473;SDS011;8865;47.636;7.692;2023-06-22T06:32:02;10.73;;;7.20;;
9473;SDS011;8865;47.636;7.692;2023-06-22T06:34:29;10.60;;;7.07;;
9473;SDS011;8865;47.636;7.692;2023-06-22T06:36:55;10.90;;;6.73;;
9473;SDS011;8865;47.636;7.692;2023-06-22T06:39:21;10.43;;;7.57;;
9473;SDS011;8865;47.636;7.692;2023-06-22T06:41:47;12.40;;;7.60;;
9473;SDS011;8865;47.636;7.692;2023-06-22T06:44:13;10.13;;;6.77;;
9473;SDS011;8865;47.636;7.692;2023-06-22T06:46:39;11.47;;;7.50;;
9473;SDS011;8865;47.636;7.692;2023-06-22T06:49:05;10.40;;;7.50;;
9473;SDS011;8865;47.636;7.692;2023-06-22T06:51:31;10.63;;;8.03;;
9473;SDS011;8865;47.636;7.692;2023-06-22T06:53:57;12.37;;;7.50;;
9473;SDS011;8865;47.636;7.692;2023-06-22T06:56:23;8.80;;;6.70;;
9473;SDS011;8865;47.636;7.692;2023-06-22T06:58:50;12.77;;;7.37;;
9473;SDS011;8865;47.636;7.692;2023-06-22T07:01:16;12.93;;;7.57;;
9473;SDS011;8865;47.636;7.692;2023-06-22T07:03:42;13.47;;;7.83;;
9473;SDS011;8865;47.636;7.692;2023-06-22T07:06:08;12.03;;;7.73;;
9473;SDS011;8865;47.636;7.692;2023-06-22T07:08:34;13.10;;;7.63;;
9473;SDS011;8865;47.636;7.692;2023-06-22T07:11:02;10.93;;;7.73;;
9473;SDS011;8865;47.636;7.692;2023-06-22T07:13:28;11.07;;;7.47;;
9473;SDS011;8865;47.636;7.692;2023-06-22T07:15:54;13.57;;;8.03;;
9473;SDS011;8865;47.636;7.692;2023-06-22T07:18:20;13.47;;;7.57;;
9473;SDS011;8865;47.636;7.692;2023-06-22T07:20:46;10.27;;;7.70;;
9473;SDS011;8865;47.636;7.692;2023-06-22T07:23:12;9.83;;;7.47;;
9473;SDS011;8865;47.636;7.692;2023-06-22T07:25:38;12.03;;;7.73;;
9473;SDS011;8865;47.636;7.692;2023-06-22T07:28:06;15.47;;;7.30;;
9473;SDS011;8865;47.636;7.692;2023-06-22T07:30:33;11.03;;;7.80;;
9473;SDS011;8865;47.636;7.692;2023-06-22T07:32:59;9.87;;;6.93;;
9473;SDS011;8865;47.636;7.692;2023-06-22T07:35:30;9.60;;;7.10;;
9473;SDS011;8865;47.636;7.692;2023-06-22T07:37:56;9.10;;;6.63;;
9473;SDS011;8865;47.636;7.692;2023-06-22T07:40:22;12.60;;;7.20;;
9473;SDS011;8865;47.636;7.692;2023-06-22T07:42:48;11.03;;;6.50;;
9473;SDS011;8865;47.636;7.692;2023-06-22T07:45:17;9.77;;;6.37;;
9473;SDS011;8865;47.636;7.692;2023-06-22T07:47:43;12.73;;;7.20;;
9473;SDS011;8865;47.636;7.692;2023-06-22T07:50:09;10.10;;;6.60;;
9473;SDS011;8865;47.636;7.692;2023-06-22T07:52:35;9.20;;;6.60;;
9473;SDS011;8865;47.636;7.692;2023-06-22T07:55:02;8.47;;;6.43;;
9473;SDS011;8865;47.636;7.692;2023-06-22T07:57:28;10.03;;;7.13;;
9473;SDS011;8865;47.636;7.692;2023-06-22T08:00:03;8.57;;;6.43;;
9473;SDS011;8865;47.636;7.692;2023-06-22T08:02:40;11.23;;;6.87;;
9473;SDS011;8865;47.636;7.692;2023-06-22T08:05:07;10.73;;;7.00;;
9473;SDS011;8865;47.636;7.692;2023-06-22T08:07:35;8.57;;;6.17;;
9473;SDS011;8865;47.636;7.692;2023-06-22T08:10:03;12.00;;;6.80;;
9473;SDS011;8865;47.636;7.692;2023-06-22T08:12:30;13.63;;;6.13;;
9473;SDS011;8865;47.636;7.692;2023-06-22T08:14:56;11.73;;;6.77;;
9473;SDS011;8865;47.636;7.692;2023-06-22T08:17:23;11.43;;;6.40;;
9473;SDS011;8865;47.636;7.692;2023-06-22T08:19:50;9.77;;;6.07;;
9473;SDS011;8865;47.636;7.692;2023-06-22T08:22:16;9.50;;;6.75;;
9473;SDS011;8865;47.636;7.692;2023-06-22T08:24:43;9.80;;;6.47;;
9473;SDS011;8865;47.636;7.692;2023-06-22T08:27:09;9.13;;;6.38;;
9473;SDS011;8865;47.636;7.692;2023-06-22T08:29:37;9.75;;;6.38;;
9473;SDS011;8865;47.636;7.692;2023-06-22T08:32:03;8.43;;;5.60;;
9473;SDS011;8865;47.636;7.692;2023-06-22T08:34:29;9.85;;;5.63;;
9473;SDS011;8865;47.636;7.692;2023-06-22T08:36:56;8.80;;;5.85;;
9473;SDS011;8865;47.636;7.692;2023-06-22T08:39:22;8.57;;;5.47;;
9473;SDS011;8865;47.636;7.692;2023-06-22T08:41:49;8.02;;;5.68;;
9473;SDS011;8865;47.636;7.692;2023-06-22T08:44:17;9.23;;;5.05;;
9473;SDS011;8865;47.636;7.692;2023-06-22T08:46:44;12.73;;;5.68;;
9473;SDS011;8865;47.636;7.692;2023-06-22T08:49:10;11.32;;;5.82;;
9473;SDS011;8865;47.636;7.692;2023-06-22T08:51:36;9.18;;;5.63;;
9473;SDS011;8865;47.636;7.692;2023-06-22T08:54:02;10.15;;;5.70;;
9473;SDS011;8865;47.636;7.692;2023-06-22T08:56:28;9.60;;;5.45;;
9473;SDS011;8865;47.636;7.692;2023-06-22T08:58:54;11.55;;;5.40;;
9473;SDS011;8865;47.636;7.692;2023-06-22T09:01:20;11.07;;;5.40;;
9473;SDS011;8865;47.636;7.692;2023-06-22T09:03:48;7.38;;;5.25;;
9473;SDS011;8865;47.636;7.692;2023-06-22T09:06:20;10.48;;;5.05;;
9473;SDS011;8865;47.636;7.692;2023-06-22T09:08:47;10.00;;;5.50;;
9473;SDS011;8865;47.636;7.692;2023-06-22T09:11:13;8.90;;;5.18;;
9473;SDS011;8865;47.636;7.692;2023-06-22T09:13:39;7.07;;;4.90;;
9473;SDS011;8865;47.636;7.692;2023-06-22T09:16:05;9.20;;;4.85;;
9473;SDS011;8865;47.636;7.692;2023-06-22T09:18:33;10.73;;;5.45;;
9473;SDS011;8865;47.636;7.692;2023-06-22T09:20:59;7.90;;;5.00;;
9473;SDS011;8865;47.636;7.692;2023-06-22T09:23:26;7.80;;;4.85;;
9473;SDS011;8865;47.636;7.692;2023-06-22T09:25:52;8.57;;;5.13;;
9473;SDS011;8865;47.636;7.692;2023-06-22T09:28:18;8.65;;;5.30;;
9473;SDS011;8865;47.636;7.692;2023-06-22T09:30:44;8.48;;;5.10;;
9473;SDS011;8865;47.636;7.692;2023-06-22T09:33:10;8.95;;;5.50;;
9473;SDS011;8865;47.636;7.692;2023-06-22T09:35:36;8.57;;;5.38;;
9473;SDS011;8865;47.636;7.692;2023-06-22T09:38:02;11.63;;;5.90;;
9473;SDS011;8865;47.636;7.692;2023-06-22T09:40:28;9.30;;;5.57;;
9473;SDS011;8865;47.636;7.692;2023-06-22T09:42:54;7.43;;;5.53;;
9473;SDS011;8865;47.636;7.692;2023-06-22T09:45:20;11.32;;;5.35;;
9473;SDS011;8865;47.636;7.692;2023-06-22T09:47:46;9.73;;;5.82;;
9473;SDS011;8865;47.636;7.692;2023-06-22T09:50:12;10.73;;;6.13;;
9473;SDS011;8865;47.636;7.692;2023-06-22T09:52:38;11.73;;;6.25;;
9473;SDS011;8865;47.636;7.692;2023-06-22T09:55:04;9.43;;;6.03;;
9473;SDS011;8865;47.636;7.692;2023-06-22T09:57:30;11.00;;;6.00;;
9473;SDS011;8865;47.636;7.692;2023-06-22T09:59:57;11.65;;;6.53;;
9473;SDS011;8865;47.636;7.692;2023-06-22T10:02:23;10.38;;;5.72;;
9473;SDS011;8865;47.636;7.692;2023-06-22T10:04:49;11.80;;;5.75;;
9473;SDS011;8865;47.636;7.692;2023-06-22T10:07:15;8.63;;;5.95;;
9473;SDS011;8865;47.636;7.692;2023-06-22T10:09:41;10.05;;;5.45;;
9473;SDS011;8865;47.636;7.692;2023-06-22T10:12:07;8.35;;;5.72;;
9473;SDS011;8865;47.636;7.692;2023-06-22T10:14:33;9.98;;;5.40;;
9473;SDS011;8865;47.636;7.692;2023-06-22T10:16:59;9.98;;;5.57;;
9473;SDS011;8865;47.636;7.692;2023-06-22T10:19:25;7.50;;;5.30;;
9473;SDS011;8865;47.636;7.692;2023-06-22T10:21:51;13.75;;;6.05;;
9473;SDS011;8865;47.636;7.692;2023-06-22T10:24:17;7.90;;;5.15;;
9473;SDS011;8865;47.636;7.692;2023-06-22T10:26:43;13.05;;;5.78;;
9473;SDS011;8865;47.636;7.692;2023-06-22T10:29:09;8.25;;;5.47;;
9473;SDS011;8865;47.636;7.692;2023-06-22T10:31:35;9.52;;;5.40;;
9473;SDS011;8865;47.636;7.692;2023-06-22T10:34:01;7.80;;;5.47;;
9473;SDS011;8865;47.636;7.692;2023-06-22T10:36:27;11.15;;;5.43;;
9473;SDS011;8865;47.636;7.692;2023-06-22T10:38:54;8.65;;;5.78;;
9473;SDS011;8865;47.636;7.692;2023-06-22T10:41:21;10.05;;;5.85;;
9473;SDS011;8865;47.636;7.692;2023-06-22T10:43:47;11.95;;;5.70;;
9473;SDS011;8865;47.636;7.692;2023-06-22T10:46:13;10.43;;;5.55;;
9473;SDS011;8865;47.636;7.692;2023-06-22T10:48:39;10.93;;;6.03;;
9473;SDS011;8865;47.636;7.692;2023-06-22T10:51:05;8.82;;;5.55;;
9473;SDS011;8865;47.636;7.692;2023-06-22T10:53:31;9.27;;;5.70;;
9473;SDS011;8865;47.636;7.692;2023-06-22T10:55:57;12.63;;;5.88;;
9473;SDS011;8865;47.636;7.692;2023-06-22T10:58:23;9.38;;;5.60;;
9473;SDS011;8865;47.636;7.692;2023-06-22T11:00:50;7.70;;;5.45;;
9473;SDS011;8865;47.636;7.692;2023-06-22T11:03:16;9.93;;;6.55;;
9473;SDS011;8865;47.636;7.692;2023-06-22T11:05:42;10.27;;;6.07;;
9473;SDS011;8865;47.636;7.692;2023-06-22T11:08:08;11.02;;;5.55;;
9473;SDS011;8865;47.636;7.692;2023-06-22T11:10:34;11.63;;;5.85;;
9473;SDS011;8865;47.636;7.692;2023-06-22T11:13:00;8.82;;;5.57;;
9473;SDS011;8865;47.636;7.692;2023-06-22T11:15:28;10.02;;;6.20;;
9473;SDS011;8865;47.636;7.692;2023-06-22T11:17:54;10.63;;;6.63;;
9473;SDS011;8865;47.636;7.692;2023-06-22T11:20:20;9.52;;;6.07;;
9473;SDS011;8865;47.636;7.692;2023-06-22T11:22:46;9.15;;;6.13;;
9473;SDS011;8865;47.636;7.692;2023-06-22T11:25:12;10.77;;;5.78;;
9473;SDS011;8865;47.636;7.692;2023-06-22T11:27:38;12.48;;;6.60;;
9473;SDS011;8865;47.636;7.692;2023-06-22T11:30:04;10.40;;;5.75;;
9473;SDS011;8865;47.636;7.692;2023-06-22T11:32:30;12.38;;;6.43;;
9473;SDS011;8865;47.636;7.692;2023-06-22T11:34:56;9.13;;;6.03;;
9473;SDS011;8865;47.636;7.692;2023-06-22T11:37:22;10.82;;;6.78;;
9473;SDS011;8865;47.636;7.692;2023-06-22T11:39:48;8.90;;;6.47;;
9473;SDS011;8865;47.636;7.692;2023-06-22T11:42:14;9.85;;;6.20;;
9473;SDS011;8865;47.636;7.692;2023-06-22T11:44:41;12.23;;;6.10;;
9473;SDS011;8865;47.636;7.692;2023-06-22T11:47:08;8.80;;;6.10;;
9473;SDS011;8865;47.636;7.692;2023-06-22T11:49:35;9.57;;;6.10;;
9473;SDS011;8865;47.636;7.692;2023-06-22T11:52:01;8.18;;;5.93;;
9473;SDS011;8865;47.636;7.692;2023-06-22T11:54:27;8.57;;;5.68;;
9473;SDS011;8865;47.636;7.692;2023-06-22T11:56:53;10.40;;;6.32;;
9473;SDS011;8865;47.636;7.692;2023-06-22T11:59:19;9.00;;;6.38;;
9473;SDS011;8865;47.636;7.692;2023-06-22T12:01:47;7.32;;;5.72;;
9473;SDS011;8865;47.636;7.692;2023-06-22T12:04:14;11.40;;;6.88;;
9473;SDS011;8865;47.636;7.692;2023-06-22T12:06:40;8.57;;;6.28;;
9473;SDS011;8865;47.636;7.692;2023-06-22T12:09:08;8.98;;;6.40;;
9473;SDS011;8865;47.636;7.692;2023-06-22T12:11:35;13.65;;;6.45;;
9473;SDS011;8865;47.636;7.692;2023-06-22T12:14:01;10.88;;;6.22;;
9473;SDS011;8865;47.636;7.692;2023-06-22T12:16:28;8.20;;;5.82;;
9473;SDS011;8865;47.636;7.692;2023-06-22T12:18:54;10.45;;;6.13;;
9473;SDS011;8865;47.636;7.692;2023-06-22T12:21:20;10.52;;;6.15;;
9473;SDS011;8865;47.636;7.692;2023-06-22T12:23:46;9.80;;;5.97;;
9473;SDS011;8865;47.636;7.692;2023-06-22T12:26:12;9.50;;;6.78;;
9473;SDS011;8865;47.636;7.692;2023-06-22T12:28:38;16.33;;;8.30;;
9473;SDS011;8865;47.636;7.692;2023-06-22T12:31:04;12.63;;;8.77;;
9473;SDS011;8865;47.636;7.692;2023-06-22T12:33:30;11.73;;;8.40;;
9473;SDS011;8865;47.636;7.692;2023-06-22T12:35:56;11.90;;;8.93;;
9473;SDS011;8865;47.636;7.692;2023-06-22T12:38:22;13.88;;;8.80;;
9473;SDS011;8865;47.636;7.692;2023-06-22T12:40:51;15.77;;;8.43;;
9473;SDS011;8865;47.636;7.692;2023-06-22T12:43:18;11.75;;;8.07;;
9473;SDS011;8865;47.636;7.692;2023-06-22T12:45:44;15.02;;;8.20;;
9473;SDS011;8865;47.636;7.692;2023-06-22T12:48:10;13.02;;;7.78;;
9473;SDS011;8865;47.636;7.692;2023-06-22T12:50:36;14.15;;;7.22;;
9473;SDS011;8865;47.636;7.692;2023-06-22T12:53:02;13.55;;;6.80;;
9473;SDS011;8865;47.636;7.692;2023-06-22T12:55:29;11.50;;;6.57;;
9473;SDS011;8865;47.636;7.692;2023-06-22T12:57:56;11.68;;;6.10;;
9473;SDS011;8865;47.636;7.692;2023-06-22T13:00:22;9.23;;;6.10;;
9473;SDS011;8865;47.636;7.692;2023-06-22T13:02:48;9.20;;;5.47;;
9473;SDS011;8865;47.636;7.692;2023-06-22T13:05:14;11.60;;;5.72;;
9473;SDS011;8865;47.636;7.692;2023-06-22T13:07:40;9.57;;;5.25;;
9473;SDS011;8865;47.636;7.692;2023-06-22T13:10:07;10.00;;;6.20;;
9473;SDS011;8865;47.636;7.692;2023-06-22T13:12:33;7.28;;;5.53;;
9473;SDS011;8865;47.636;7.692;2023-06-22T13:15:00;10.98;;;5.80;;
9473;SDS011;8865;47.636;7.692;2023-06-22T13:17:26;9.40;;;5.80;;
9473;SDS011;8865;47.636;7.692;2023-06-22T13:19:52;10.90;;;5.63;;
9473;SDS011;8865;47.636;7.692;2023-06-22T13:24:57;14.50;;;5.70;;
9473;SDS011;8865;47.636;7.692;2023-06-22T13:27:24;9.73;;;5.50;;
9473;SDS011;8865;47.636;7.692;2023-06-22T13:29:51;14.25;;;6.45;;
9473;SDS011;8865;47.636;7.692;2023-06-22T13:32:17;8.50;;;5.38;;
9473;SDS011;8865;47.636;7.692;2023-06-22T13:34:43;12.18;;;6.07;;
9473;SDS011;8865;47.636;7.692;2023-06-22T13:37:09;10.95;;;6.20;;
9473;SDS011;8865;47.636;7.692;2023-06-22T13:39:35;12.07;;;6.30;;
9473;SDS011;8865;47.636;7.692;2023-06-22T13:42:01;9.15;;;6.28;;
9473;SDS011;8865;47.636;7.692;2023-06-22T13:44:27;10.77;;;5.95;;
9473;SDS011;8865;47.636;7.692;2023-06-22T13:46:54;12.65;;;6.18;;
9473;SDS011;8865;47.636;7.692;2023-06-22T13:49:21;14.00;;;6.10;;
9473;SDS011;8865;47.636;7.692;2023-06-22T13:51:47;9.77;;;6.07;;
9473;SDS011;8865;47.636;7.692;2023-06-22T13:54:14;10.80;;;6.07;;
9473;SDS011;8865;47.636;7.692;2023-06-22T13:56:41;12.15;;;6.40;;
9473;SDS011;8865;47.636;7.692;2023-06-22T13:59:07;8.73;;;5.88;;
9473;SDS011;8865;47.636;7.692;2023-06-22T14:01:35;12.10;;;6.55;;
9473;SDS011;8865;47.636;7.692;2023-06-22T14:04:02;12.85;;;6.85;;
9473;SDS011;8865;47.636;7.692;2023-06-22T14:06:28;12.35;;;6.65;;
9473;SDS011;8865;47.636;7.692;2023-06-22T14:08:54;10.30;;;7.10;;
9473;SDS011;8865;47.636;7.692;2023-06-22T14:11:20;8.82;;;6.40;;
9473;SDS011;8865;47.636;7.692;2023-06-22T14:13:46;12.15;;;6.68;;
9473;SDS011;8865;47.636;7.692;2023-06-22T14:16:12;11.25;;;6.68;;
9473;SDS011;8865;47.636;7.692;2023-06-22T14:18:38;10.60;;;6.30;;
9473;SDS011;8865;47.636;7.692;2023-06-22T14:21:04;10.93;;;6.97;;
9473;SDS011;8865;47.636;7.692;2023-06-22T14:23:30;16.20;;;6.85;;
9473;SDS011;8865;47.636;7.692;2023-06-22T14:25:56;10.48;;;7.05;;
9473;SDS011;8865;47.636;7.692;2023-06-22T14:28:23;12.03;;;7.30;;
9473;SDS011;8865;47.636;7.692;2023-06-22T14:30:49;14.15;;;6.82;;
9473;SDS011;8865;47.636;7.692;2023-06-22T14:33:15;10.07;;;6.68;;
9473;SDS011;8865;47.636;7.692;2023-06-22T14:35:41;10.50;;;6.17;;
9473;SDS011;8865;47.636;7.692;2023-06-22T14:38:07;9.95;;;6.13;;
9473;SDS011;8865;47.636;7.692;2023-06-22T14:40:33;13.02;;;6.43;;
9473;SDS011;8865;47.636;7.692;2023-06-22T14:42:59;12.43;;;6.45;;
9473;SDS011;8865;47.636;7.692;2023-06-22T14:45:25;12.87;;;6.90;;
9473;SDS011;8865;47.636;7.692;2023-06-22T14:47:52;9.70;;;6.20;;
9473;SDS011;8865;47.636;7.692;2023-06-22T14:50:18;13.35;;;7.03;;
9473;SDS011;8865;47.636;7.692;2023-06-22T14:52:44;13.18;;;7.28;;
9473;SDS011;8865;47.636;7.692;2023-06-22T14:55:10;12.80;;;7.38;;
9473;SDS011;8865;47.636;7.692;2023-06-22T14:57:36;12.68;;;6.68;;
9473;SDS011;8865;47.636;7.692;2023-06-22T15:00:02;13.15;;;6.78;;
9473;SDS011;8865;47.636;7.692;2023-06-22T15:02:28;13.27;;;7.03;;
9473;SDS011;8865;47.636;7.692;2023-06-22T15:04:54;10.23;;;6.47;;
9473;SDS011;8865;47.636;7.692;2023-06-22T15:07:21;11.85;;;6.70;;
9473;SDS011;8865;47.636;7.692;2023-06-22T15:09:47;11.32;;;7.00;;
9473;SDS011;8865;47.636;7.692;2023-06-22T15:12:13;14.55;;;7.15;;
9473;SDS011;8865;47.636;7.692;2023-06-22T15:14:39;12.15;;;7.00;;
9473;SDS011;8865;47.636;7.692;2023-06-22T15:17:06;11.47;;;7.03;;
9473;SDS011;8865;47.636;7.692;2023-06-22T15:19:39;11.37;;;6.70;;
9473;SDS011;8865;47.636;7.692;2023-06-22T15:22:06;14.00;;;7.07;;
9473;SDS011;8865;47.636;7.692;2023-06-22T15:24:33;12.80;;;6.68;;